METAR Data
IDs: Format: Raw Decoded Include TAF

Data at: 1706 UTC 16 Oct 2021

KUVA 161155Z AUTO 00000KT 10SM CLR 11/06 A3036 RMK AO2 T01130064 10186 20107
KUVA 161135Z AUTO 00000KT 10SM CLR 11/06 A3035 RMK AO2 T01110063
KUVA 161115Z AUTO 00000KT 10SM CLR 13/06 A3034 RMK AO2 T01270058
KUVA 161055Z AUTO 33003KT 10SM CLR 13/06 A3033 RMK AO2 T01250062
KUVA 161035Z AUTO 32004KT 10SM CLR 14/05 A3032 RMK AO2 T01370051
KUVA 161015Z AUTO 33003KT 10SM CLR 15/05 A3031 RMK AO2 T01450049
KUVA 160955Z AUTO 01003KT 10SM CLR 14/05 A3031 RMK AO2 T01380054
KUVA 160935Z AUTO 01004KT 10SM CLR 14/06 A3030 RMK AO2 T01420061
KUVA 160915Z AUTO 01003KT 10SM CLR 15/07 A3029 RMK AO2 T01470067
KUVA 160855Z AUTO 00000KT 10SM CLR 15/07 A3029 RMK AO2 T01510070
KUVA 160835Z AUTO 02005KT 10SM CLR 16/07 A3029 RMK AO2 T01560070
KUVA 160815Z AUTO 03006KT 10SM CLR 16/08 A3029 RMK AO2 T01560075
KUVA 160755Z AUTO 04005KT 10SM CLR 16/08 A3028 RMK AO2 T01600075
KUVA 160735Z AUTO 04006KT 10SM CLR 16/08 A3028 RMK AO2 T01610075
KUVA 160715Z AUTO 04006KT 10SM CLR 17/07 A3028 RMK AO2 T01690073
KUVA 160655Z AUTO 02006KT 10SM SCT085 17/08 A3027 RMK AO2 T01730076
KUVA 160635Z AUTO 04005KT 10SM SCT085 18/08 A3027 RMK AO2 T01760080
KUVA 160615Z AUTO 03007KT 10SM SCT080 18/08 A3026 RMK AO2 T01800082
KUVA 160555Z AUTO 02006KT 10SM SCT080 19/09 A3025 RMK AO2 T01860085 10258 20186 403130186
KUVA 160535Z AUTO 02007KT 10SM CLR 19/09 A3025 RMK AO2 T01900086
KUVA 160515Z AUTO 03009KT 10SM CLR 19/09 A3024 RMK AO2 T01920088
KUVA 160455Z AUTO 02008KT 10SM CLR 19/09 A3023 RMK AO2 T01940091
KUVA 160435Z AUTO 03004KT 10SM CLR 19/09 A3023 RMK AO2 T01900092
KUVA 160415Z AUTO 04005KT 10SM CLR 20/09 A3022 RMK AO2 T01990090
KUVA 160355Z AUTO 02008G14KT 10SM CLR 21/09 A3020 RMK AO2 T02070090
KUVA 160335Z AUTO 02008KT 10SM CLR 21/09 A3018 RMK AO2 T02100094
KUVA 160315Z AUTO 02008KT 10SM CLR 21/10 A3017 RMK AO2 T02100097
KUVA 160255Z AUTO 01008KT 10SM CLR 21/10 A3015 RMK AO2 T02130098
KUVA 160235Z AUTO 01006KT 10SM SCT070 22/10 A3014 RMK AO2 T02150100
KUVA 160215Z AUTO 02009G14KT 10SM SCT070 22/10 A3013 RMK AO2 T02200101
KUVA 160155Z AUTO 02008KT 10SM CLR 22/11 A3011 RMK AO2 T02200111
KUVA 160135Z AUTO 03006KT 10SM CLR 21/12 A3010 RMK AO2 T02110123
KUVA 160115Z AUTO 02008KT 10SM CLR 23/12 A3009 RMK AO2 T02250121
KUVA 160055Z AUTO 02006KT 10SM CLR 23/12 A3008 RMK AO2 T02320117
KUVA 160035Z AUTO 01006KT 10SM CLR 24/12 A3008 RMK AO2 T02400115
KUVA 160015Z AUTO 01008G14KT 10SM CLR 25/11 A3007 RMK AO2 T02510112
KUVA 152355Z AUTO 01013G21KT 10SM CLR 26/11 A3006 RMK AO2 T02600108 10313 20260
KUVA 152335Z AUTO 03011G17KT 10SM CLR 27/11 A3004 RMK AO2 T02710114
KUVA 152315Z AUTO 01013G24KT 10SM BKN120 28/11 A3003 RMK AO2 T02800111
KUVA 152255Z AUTO 02013G18KT 10SM OVC120 29/11 A3003 RMK AO2 T02940113
KUVA 152235Z AUTO 02014G20KT 10SM OVC110 30/11 A3002 RMK AO2 T02960113
KUVA 152215Z AUTO 01014G20KT 10SM SCT110 30/14 A3001 RMK AO2 T02960137
KUVA 152155Z AUTO 01009G19KT 10SM CLR 31/14 A2999 RMK AO2 T03070136
KUVA 152135Z AUTO 01011G16KT 10SM CLR 30/11 A2998 RMK AO2 T02980105
KUVA 152115Z AUTO 35011G17KT 10SM SCT120 31/12 A2998 RMK AO2 LTG DSNT SE T03090122
KUVA 152055Z AUTO 01010G16KT 10SM SCT120 30/18 A2999 RMK AO2 T03040183
KUVA 152035Z AUTO 34006KT 10SM CLR 28/19 A2999 RMK AO2 LTG DSNT S T02790193
KUVA 152015Z AUTO 36009KT 10SM SCT043 SCT050 27/20 A3000 RMK AO2 LTG DSNT SW T02680203
KUVA 151955Z AUTO 36012G16KT 10SM SCT040 SCT048 BKN070 28/21 A2999 RMK AO2 T02810206
KUVA 151935Z AUTO 34013G21KT 10SM SCT030 SCT043 BKN090 28/20 A3000 RMK AO2 T02820195
KUVA 151915Z AUTO 26006KT 10SM CLR 31/23 A3000 RMK AO2 LTG DSNT N T03070231
KUVA 151855Z AUTO 28007KT 10SM SCT028 SCT049 30/23 A3000 RMK AO2 T03020233
KUVA 151835Z AUTO 23004KT 10SM CLR 30/23 A3001 RMK AO2 T02960233
KUVA 151815Z AUTO 23003KT 10SM CLR 29/24 A3002 RMK AO2 LTG DSNT NW T02880242
KUVA 151755Z AUTO 00000KT 10SM SCT017 SCT034 SCT110 28/25 A3002 RMK AO2 T02820246 10283 20228
KUVA 151735Z AUTO 29003KT 10SM SCT013 BKN030 OVC110 27/25 A3003 RMK AO2 T02700248
KUVA 151715Z AUTO 32004KT 10SM SCT011 OVC030 26/26 A3004 RMK AO2 T02590255
KUVA 151655Z AUTO 33006KT 10SM OVC011 25/25 A3004 RMK AO2 T02460246
KUVA 151635Z AUTO 36005KT 7SM BKN008 OVC014 25/25 A3004 RMK AO2 T02450245
KUVA 151615Z AUTO 33005KT 5SM BR OVC008 24/24 A3004 RMK AO2 T02430243
KUVA 151555Z AUTO 00000KT 5SM BR OVC008 24/24 A3003 RMK AO2 T02400240
KUVA 151535Z AUTO 00000KT 5SM BR OVC008 24/24 A3003 RMK AO2 T02400240
KUVA 151515Z AUTO 00000KT 5SM BR BKN006 BKN009 OVC014 24/24 A3002 RMK AO2 T02400240
KUVA 151455Z AUTO 00000KT 4SM BR SCT004 OVC014 24/24 A3001 RMK AO2 T02390239
KUVA 151435Z AUTO 00000KT 2 1/2SM BR SCT004 BKN010 OVC014 24/24 A2999 RMK AO2 T02360236
KUVA 151415Z AUTO 05004KT 1 1/2SM BR OVC004 24/24 A2998 RMK AO2 T02350235
KUVA 151355Z AUTO 00000KT 1 1/4SM BR OVC002 23/23 A2997 RMK AO2 T02330233
KUVA 151335Z AUTO 03003KT 1/2SM FG OVC002 23/23 A2997 RMK AO2 T02320232
KUVA 151315Z AUTO 04004KT 1/2SM FG OVC002 23/23 A2996 RMK AO2 T02310231
KUVA 151255Z AUTO 04004KT 3/4SM BR OVC002 23/23 A2995 RMK AO2 T02310231
KUVA 151235Z AUTO 03003KT 1/2SM FG OVC002 23/23 A2995 RMK AO2 T02300230
KUVA 151215Z AUTO 07003KT 1/2SM FG OVC002 23/23 A2994 RMK AO2 T02300230
KUVA 151155Z AUTO 00000KT 1/4SM FG OVC002 23/23 A2993 RMK AO2 T02280228 10228 20210
KUVA 151135Z AUTO 09003KT 1/4SM FG OVC002 23/23 A2992 RMK AO2 T02270227
KUVA 151115Z AUTO 09004KT 1/4SM FG OVC002 23/23 A2992 RMK AO2 T02260226
KUVA 151055Z AUTO 09004KT 1/4SM FG OVC002 23/23 A2991 RMK AO2 T02250225
KUVA 151035Z AUTO 08004KT 1/2SM FG OVC002 22/22 A2991 RMK AO2 T02230223
KUVA 151015Z AUTO 08003KT 1/4SM FG OVC002 22/22 A2991 RMK AO2 T02220222
KUVA 150955Z AUTO 07003KT 1/4SM FG OVC002 22/22 A2990 RMK AO2 T02200220
KUVA 150935Z AUTO 06004KT 1/4SM FG OVC002 22/22 A2990 RMK AO2 T02200220
KUVA 150915Z AUTO 00000KT 1/2SM FG OVC002 22/22 A2990 RMK AO2 T02200220
KUVA 150855Z AUTO 07004KT 1SM BR OVC002 22/22 A2990 RMK AO2 T02200220
KUVA 150835Z AUTO 07005KT 3SM BR BKN002 22/22 A2990 RMK AO2 T02160216
KUVA 150815Z AUTO 06005KT 4SM BR CLR 21/21 A2990 RMK AO2 T02110211
KUVA 150755Z AUTO 06003KT 5SM BR CLR 21/21 A2991 RMK AO2 T02110211
KUVA 150735Z AUTO 06003KT 5SM BR CLR 21/21 A2991 RMK AO2 T02110211
KUVA 150715Z AUTO 07003KT 5SM BR CLR 21/21 A2991 RMK AO2 T02120212
KUVA 150655Z AUTO 08005KT 7SM CLR 21/21 A2990 RMK AO2 T02140214
KUVA 150635Z AUTO 06004KT 7SM CLR 21/21 A2990 RMK AO2 T02100210
KUVA 150615Z AUTO 07004KT 7SM CLR 21/21 A2990 RMK AO2 T02120212
KUVA 150555Z AUTO 00000KT 10SM CLR 22/22 A2990 RMK AO2 T02160216 10289 20216 403080189
KUVA 150535Z AUTO 06004KT 10SM CLR 22/22 A2990 RMK AO2 T02180218
KUVA 150515Z AUTO 06004KT 10SM CLR 22/22 A2990 RMK AO2 T02180218